Milwaukee, Wisconsin
Traffic Map
Current Weather Conditions
Milwaukee, Wisconsin
Scattered Clouds
Scattered Clouds
71°
Feels Like: 71°
Wind Chill: 71° Ceiling: Unl
Heat Index: 71° Visibility: 10mi
Dew Point: 50° Wind: 12mph
Humidity: 47% Direction: 60° (ENE)
Pressure: 29.76in Gusts: 0mph
Raw Report DataKMKE 231952Z 06010KT 10SM SCT043 SCT250 22/10 A2976 RMK AO2 SLP075 T02170100
Traffic Incident Summary
Active as of:
Severity:
Category:
InformationThere was an issue retrieving the traffic information for this location. Please try a different location or try again shortly.
Advertisements